sensor_id;sensor_type;location;lat;lon;timestamp;temperature;humidity
44069;DHT22;29738;51.234;5.484;2023-08-01T06:33:16;17.00;99.90
44069;DHT22;29738;51.234;5.484;2023-08-01T06:35:42;16.80;99.90
44069;DHT22;29738;51.234;5.484;2023-08-01T06:38:07;16.80;99.90
44069;DHT22;29738;51.234;5.484;2023-08-01T06:40:34;16.80;99.90
44069;DHT22;29738;51.234;5.484;2023-08-01T06:43:00;16.60;99.90
44069;DHT22;29738;51.234;5.484;2023-08-01T06:45:26;16.80;99.90
44069;DHT22;29738;51.234;5.484;2023-08-01T06:47:54;16.80;99.90
44069;DHT22;29738;51.234;5.484;2023-08-01T06:50:19;16.80;99.90
44069;DHT22;29738;51.234;5.484;2023-08-01T06:52:45;16.80;99.90
44069;DHT22;29738;51.234;5.484;2023-08-01T06:55:11;16.70;99.90
44069;DHT22;29738;51.234;5.484;2023-08-01T06:57:37;16.70;99.90
44069;DHT22;29738;51.234;5.484;2023-08-01T07:00:03;16.70;99.90
44069;DHT22;29738;51.234;5.484;2023-08-01T07:02:31;16.80;99.90
44069;DHT22;29738;51.234;5.484;2023-08-01T07:04:57;16.80;99.90
44069;DHT22;29738;51.234;5.484;2023-08-01T07:07:23;17.00;99.90
44069;DHT22;29738;51.234;5.484;2023-08-01T07:09:49;17.00;99.90
44069;DHT22;29738;51.234;5.484;2023-08-01T07:12:15;17.00;99.90
44069;DHT22;29738;51.234;5.484;2023-08-01T07:14:40;17.20;99.90
44069;DHT22;29738;51.234;5.484;2023-08-01T07:17:06;17.40;99.90
44069;DHT22;29738;51.234;5.484;2023-08-01T07:19:33;17.70;99.90
44069;DHT22;29738;51.234;5.484;2023-08-01T07:22:01;17.80;99.90
44069;DHT22;29738;51.234;5.484;2023-08-01T07:24:27;17.90;99.90
44069;DHT22;29738;51.234;5.484;2023-08-01T09:16:55;19.00;99.90
44069;DHT22;29738;51.234;5.484;2023-08-01T09:19:23;19.00;99.90
44069;DHT22;29738;51.234;5.484;2023-08-01T09:21:48;18.80;99.90
44069;DHT22;29738;51.234;5.484;2023-08-01T09:24:18;18.70;99.90
44069;DHT22;29738;51.234;5.484;2023-08-01T09:26:44;18.80;99.90
44069;DHT22;29738;51.234;5.484;2023-08-01T09:29:10;18.90;99.90
44069;DHT22;29738;51.234;5.484;2023-08-01T09:31:37;19.00;99.90
44069;DHT22;29738;51.234;5.484;2023-08-01T09:34:03;18.90;99.90
44069;DHT22;29738;51.234;5.484;2023-08-01T09:36:30;19.10;99.90
44069;DHT22;29738;51.234;5.484;2023-08-01T09:39:05;19.20;99.90
44069;DHT22;29738;51.234;5.484;2023-08-01T09:41:31;19.20;99.90
44069;DHT22;29738;51.234;5.484;2023-08-01T09:43:57;19.20;99.90
44069;DHT22;29738;51.234;5.484;2023-08-01T09:46:23;19.30;99.90
44069;DHT22;29738;51.234;5.484;2023-08-01T09:48:54;19.10;99.90
44069;DHT22;29738;51.234;5.484;2023-08-01T12:17:19;19.50;99.90
44069;DHT22;29738;51.234;5.484;2023-08-01T12:19:44;19.60;99.90
44069;DHT22;29738;51.234;5.484;2023-08-01T12:22:11;19.70;99.90
44069;DHT22;29738;51.234;5.484;2023-08-01T12:24:37;19.60;99.90
44069;DHT22;29738;51.234;5.484;2023-08-01T12:27:07;20.00;99.90
44069;DHT22;29738;51.234;5.484;2023-08-01T12:29:32;20.40;99.90
44069;DHT22;29738;51.234;5.484;2023-08-01T12:31:58;20.40;99.90
44069;DHT22;29738;51.234;5.484;2023-08-01T12:34:23;20.50;99.90
44069;DHT22;29738;51.234;5.484;2023-08-01T12:36:49;20.40;99.90
44069;DHT22;29738;51.234;5.484;2023-08-01T12:39:15;20.30;99.90
44069;DHT22;29738;51.234;5.484;2023-08-01T12:41:43;20.70;99.90
44069;DHT22;29738;51.234;5.484;2023-08-01T12:44:09;20.80;99.90
44069;DHT22;29738;51.234;5.484;2023-08-01T12:46:34;20.90;99.90
44069;DHT22;29738;51.234;5.484;2023-08-01T12:49:00;20.80;99.90
44069;DHT22;29738;51.234;5.484;2023-08-01T12:51:26;20.70;99.90
44069;DHT22;29738;51.234;5.484;2023-08-01T12:53:52;20.50;99.90
44069;DHT22;29738;51.234;5.484;2023-08-01T12:56:20;20.30;99.90
44069;DHT22;29738;51.234;5.484;2023-08-01T12:58:46;20.30;99.90
44069;DHT22;29738;51.234;5.484;2023-08-01T13:01:11;20.30;99.90
44069;DHT22;29738;51.234;5.484;2023-08-01T13:03:37;20.50;99.90
44069;DHT22;29738;51.234;5.484;2023-08-01T13:06:03;20.50;99.90
44069;DHT22;29738;51.234;5.484;2023-08-01T13:08:28;20.30;99.90
44069;DHT22;29738;51.234;5.484;2023-08-01T13:10:54;20.40;99.90
44069;DHT22;29738;51.234;5.484;2023-08-01T13:13:20;20.50;99.90
44069;DHT22;29738;51.234;5.484;2023-08-01T13:15:45;20.60;99.90
44069;DHT22;29738;51.234;5.484;2023-08-01T13:18:13;20.90;99.90
44069;DHT22;29738;51.234;5.484;2023-08-01T13:20:39;20.80;99.90
44069;DHT22;29738;51.234;5.484;2023-08-01T13:23:04;21.10;99.90
44069;DHT22;29738;51.234;5.484;2023-08-01T13:25:33;21.30;99.90
44069;DHT22;29738;51.234;5.484;2023-08-01T13:27:59;21.40;99.90
44069;DHT22;29738;51.234;5.484;2023-08-01T13:30:24;21.50;99.90
44069;DHT22;29738;51.234;5.484;2023-08-01T13:32:50;21.70;99.90
44069;DHT22;29738;51.234;5.484;2023-08-01T13:35:16;21.80;99.90
44069;DHT22;29738;51.234;5.484;2023-08-01T13:37:41;21.80;99.90
44069;DHT22;29738;51.234;5.484;2023-08-01T13:40:07;21.40;99.90
44069;DHT22;29738;51.234;5.484;2023-08-01T13:42:33;21.30;99.90
44069;DHT22;29738;51.234;5.484;2023-08-01T13:44:59;21.10;99.90
44069;DHT22;29738;51.234;5.484;2023-08-01T13:47:24;21.00;99.90
44069;DHT22;29738;51.234;5.484;2023-08-01T13:49:50;21.10;99.90
44069;DHT22;29738;51.234;5.484;2023-08-01T13:52:16;21.00;99.90
44069;DHT22;29738;51.234;5.484;2023-08-01T13:54:41;20.90;99.90
44069;DHT22;29738;51.234;5.484;2023-08-01T13:57:07;20.80;99.90
44069;DHT22;29738;51.234;5.484;2023-08-01T13:59:32;20.80;99.90
44069;DHT22;29738;51.234;5.484;2023-08-01T14:01:58;20.70;99.90
44069;DHT22;29738;51.234;5.484;2023-08-01T14:04:24;20.70;99.90
44069;DHT22;29738;51.234;5.484;2023-08-01T14:06:49;20.90;99.90
44069;DHT22;29738;51.234;5.484;2023-08-01T14:09:15;21.20;99.90
44069;DHT22;29738;51.234;5.484;2023-08-01T14:11:40;21.40;99.90
44069;DHT22;29738;51.234;5.484;2023-08-01T14:14:06;21.30;99.90
44069;DHT22;29738;51.234;5.484;2023-08-01T14:16:32;21.10;99.90
44069;DHT22;29738;51.234;5.484;2023-08-01T14:19:00;20.80;99.90
44069;DHT22;29738;51.234;5.484;2023-08-01T14:21:26;20.70;99.90
44069;DHT22;29738;51.234;5.484;2023-08-01T14:23:52;20.60;99.90
44069;DHT22;29738;51.234;5.484;2023-08-01T14:26:17;20.50;99.90
44069;DHT22;29738;51.234;5.484;2023-08-01T14:28:43;20.50;99.90
44069;DHT22;29738;51.234;5.484;2023-08-01T14:31:09;20.50;99.90
44069;DHT22;29738;51.234;5.484;2023-08-01T14:33:34;20.60;99.90
44069;DHT22;29738;51.234;5.484;2023-08-01T14:36:00;20.70;99.90
44069;DHT22;29738;51.234;5.484;2023-08-01T14:38:28;20.80;99.90
44069;DHT22;29738;51.234;5.484;2023-08-01T14:40:54;21.10;99.90
44069;DHT22;29738;51.234;5.484;2023-08-01T14:43:20;21.30;99.90
44069;DHT22;29738;51.234;5.484;2023-08-01T14:45:46;21.40;99.90
44069;DHT22;29738;51.234;5.484;2023-08-01T14:48:11;21.50;99.90
44069;DHT22;29738;51.234;5.484;2023-08-01T14:50:37;21.40;99.90
44069;DHT22;29738;51.234;5.484;2023-08-01T14:53:03;21.40;99.90
44069;DHT22;29738;51.234;5.484;2023-08-01T14:55:29;21.30;99.90
44069;DHT22;29738;51.234;5.484;2023-08-01T14:57:55;21.10;99.90
44069;DHT22;29738;51.234;5.484;2023-08-01T15:00:23;21.00;99.90
44069;DHT22;29738;51.234;5.484;2023-08-01T15:02:49;20.90;99.90
44069;DHT22;29738;51.234;5.484;2023-08-01T15:05:14;21.00;99.90
44069;DHT22;29738;51.234;5.484;2023-08-01T15:07:40;21.00;99.90
44069;DHT22;29738;51.234;5.484;2023-08-01T15:10:06;20.90;99.90
44069;DHT22;29738;51.234;5.484;2023-08-01T15:12:32;20.90;99.90
44069;DHT22;29738;51.234;5.484;2023-08-01T15:14:57;21.10;99.90
44069;DHT22;29738;51.234;5.484;2023-08-01T15:17:23;21.30;99.90
44069;DHT22;29738;51.234;5.484;2023-08-01T15:19:49;21.40;99.90
44069;DHT22;29738;51.234;5.484;2023-08-01T15:22:20;21.30;99.90
44069;DHT22;29738;51.234;5.484;2023-08-01T15:24:46;20.90;99.90
44069;DHT22;29738;51.234;5.484;2023-08-01T15:27:12;20.80;99.90
44069;DHT22;29738;51.234;5.484;2023-08-01T15:29:38;20.60;99.90
44069;DHT22;29738;51.234;5.484;2023-08-01T15:32:03;20.40;99.90
44069;DHT22;29738;51.234;5.484;2023-08-01T15:34:29;20.20;99.90
44069;DHT22;29738;51.234;5.484;2023-08-01T15:36:55;20.30;99.90
44069;DHT22;29738;51.234;5.484;2023-08-01T15:39:20;20.50;99.90
44069;DHT22;29738;51.234;5.484;2023-08-01T15:41:46;20.60;99.90
44069;DHT22;29738;51.234;5.484;2023-08-01T15:44:12;20.70;99.90
44069;DHT22;29738;51.234;5.484;2023-08-01T15:46:37;20.50;99.90
44069;DHT22;29738;51.234;5.484;2023-08-01T15:49:04;20.50;99.90
44069;DHT22;29738;51.234;5.484;2023-08-01T15:51:30;20.40;99.90
44069;DHT22;29738;51.234;5.484;2023-08-01T15:53:56;20.50;99.90
44069;DHT22;29738;51.234;5.484;2023-08-01T15:56:21;20.50;99.90
44069;DHT22;29738;51.234;5.484;2023-08-01T15:58:47;20.40;99.90
44069;DHT22;29738;51.234;5.484;2023-08-01T16:01:13;20.70;99.90
44069;DHT22;29738;51.234;5.484;2023-08-01T16:03:39;21.00;99.90
44069;DHT22;29738;51.234;5.484;2023-08-01T16:06:06;21.00;99.90
44069;DHT22;29738;51.234;5.484;2023-08-01T16:21:56;21.30;99.90
44069;DHT22;29738;51.234;5.484;2023-08-01T16:24:21;21.50;99.90
44069;DHT22;29738;51.234;5.484;2023-08-01T16:26:47;21.20;99.90
44069;DHT22;29738;51.234;5.484;2023-08-01T16:29:13;21.20;99.90
44069;DHT22;29738;51.234;5.484;2023-08-01T16:31:38;21.10;99.90
44069;DHT22;29738;51.234;5.484;2023-08-01T16:34:04;20.70;99.90
44069;DHT22;29738;51.234;5.484;2023-08-01T16:36:29;20.30;99.90
44069;DHT22;29738;51.234;5.484;2023-08-01T16:38:55;20.20;99.90
44069;DHT22;29738;51.234;5.484;2023-08-01T16:41:21;20.40;99.90
44069;DHT22;29738;51.234;5.484;2023-08-01T16:43:48;20.50;99.90
44069;DHT22;29738;51.234;5.484;2023-08-01T16:46:13;20.60;99.90
44069;DHT22;29738;51.234;5.484;2023-08-01T16:48:39;20.50;99.90
44069;DHT22;29738;51.234;5.484;2023-08-01T16:51:05;20.60;99.90
44069;DHT22;29738;51.234;5.484;2023-08-01T16:53:30;20.80;99.90
44069;DHT22;29738;51.234;5.484;2023-08-01T16:55:56;21.00;99.90
44069;DHT22;29738;51.234;5.484;2023-08-01T17:24:49;20.10;99.90
44069;DHT22;29738;51.234;5.484;2023-08-01T17:27:15;20.10;99.90
44069;DHT22;29738;51.234;5.484;2023-08-01T17:29:41;20.10;99.90
44069;DHT22;29738;51.234;5.484;2023-08-01T17:32:06;20.00;99.90
44069;DHT22;29738;51.234;5.484;2023-08-01T17:34:32;20.00;99.90
44069;DHT22;29738;51.234;5.484;2023-08-01T17:36:58;19.80;99.90
44069;DHT22;29738;51.234;5.484;2023-08-01T17:39:24;19.60;99.90
44069;DHT22;29738;51.234;5.484;2023-08-01T17:41:50;19.60;99.90
44069;DHT22;29738;51.234;5.484;2023-08-01T17:44:18;19.70;99.90
44069;DHT22;29738;51.234;5.484;2023-08-01T17:46:44;19.60;99.90
44069;DHT22;29738;51.234;5.484;2023-08-01T17:49:09;19.70;99.90
44069;DHT22;29738;51.234;5.484;2023-08-01T17:51:35;19.70;99.90
44069;DHT22;29738;51.234;5.484;2023-08-01T17:54:01;19.90;99.90
44069;DHT22;29738;51.234;5.484;2023-08-01T17:56:26;19.80;99.90
44069;DHT22;29738;51.234;5.484;2023-08-01T17:58:52;19.70;99.90
44069;DHT22;29738;51.234;5.484;2023-08-01T18:01:17;19.80;99.90
44069;DHT22;29738;51.234;5.484;2023-08-01T18:03:43;19.70;99.90
44069;DHT22;29738;51.234;5.484;2023-08-01T18:06:10;19.60;99.90
44069;DHT22;29738;51.234;5.484;2023-08-01T18:08:37;19.60;99.90
44069;DHT22;29738;51.234;5.484;2023-08-01T18:11:08;19.50;99.90
44069;DHT22;29738;51.234;5.484;2023-08-01T18:13:35;19.60;99.90
